Mora RC

2020-09-27 19:15:00

  • imperial
Date Time Air Temperature Relative Humidity Dewpoint Windchill Heat Index Wind Speed Wind Dir. Rain Solar Radiation Soil Temperature
2m 2m 3m 3m 10cm
US/Mountain F % F F F MPH deg in MJ/m^2 F
max avg avg
2020-09-26 19:25:00 66.1 13.5 14.8 66.1 66.1 1.7 7.8 4.1 271.3 285.7 0.00 0.0000000 72.4
2020-09-26 19:30:00 64.3 14.9 15.5 64.3 64.3 3.5 3.5 1.5 221.6 249.2 0.00 0.0000000 72.3
2020-09-26 19:35:00 61.9 17.9 17.8 61.9 61.9 1.7 3.3 2.4 264.4 243.1 0.00 0.0000000 72.1
2020-09-26 19:40:00 60.4 20.2 19.3 60.4 60.4 1.7 3.1 0.8 312.1 264.7 0.00 0.0000000 71.9
2020-09-26 19:45:00 59.2 20.8 19.1 59.2 59.2 1.5 1.9 1.3 292.0 266.2 0.00 0.0000000 71.8
2020-09-26 19:50:00 62.7 14.8 13.9 62.7 62.7 1.9 6.2 2.6 234.6 323.4 0.00 0.0001382 71.6
2020-09-26 19:55:00 65.6 11.6 10.8 65.6 65.6 3.3 5.8 3.7 349.1 271.8 0.00 0.0000916 71.4
2020-09-26 20:00:00 65.9 13.6 14.6 65.9 65.9 1.7 7.4 2.8 342.1 238.0 0.00 0.0000000 71.3
2020-09-26 20:05:00 64.6 12.9 12.4 64.6 64.6 2.8 2.8 1.9 191.0 172.2 0.00 0.0000000 71.1
2020-09-26 20:10:00 62.7 14.9 14.2 62.7 62.7 0.0 2.6 0.8 195.9 266.0 0.00 0.0000000 71.0
2020-09-26 20:15:00 61.8 17.4 17.0 61.8 61.8 0.0 2.6 1.0 266.6 4.7 0.00 0.0000000 70.8
2020-09-26 20:20:00 60.8 17.7 16.6 60.8 60.8 0.8 2.4 0.9 259.1 268.3 0.00 0.0000000 70.7
2020-09-26 20:25:00 60.0 20.7 19.5 60.0 60.0 2.8 3.0 1.5 176.3 202.2 0.00 0.0000000 70.5
2020-09-26 20:30:00 58.4 21.3 18.9 58.4 58.4 1.7 3.1 1.3 250.1 251.9 0.00 0.0000000 70.4
2020-09-26 20:35:00 58.6 19.1 16.5 58.6 58.6 1.7 3.1 2.1 2.5 227.8 0.00 0.0000000 70.2
2020-09-26 20:40:00 59.3 18.5 16.4 59.3 59.3 2.6 4.2 2.0 327.8 283.1 0.00 0.0000215 70.1
2020-09-26 20:45:00 59.5 19.0 17.2 59.5 59.5 3.0 4.4 2.1 199.0 257.6 0.00 0.0000000 69.9
2020-09-26 20:50:00 60.7 14.8 12.5 60.7 60.7 2.8 4.6 3.3 233.7 194.1 0.00 0.0000313 69.8
2020-09-26 20:55:00 60.7 17.1 15.8 60.7 60.7 1.2 3.1 1.6 260.7 353.5 0.00 0.0000000 69.7
2020-09-26 21:00:00 61.0 16.5 15.1 61.0 61.0 1.9 3.5 1.6 219.3 171.9 0.00 0.0000000 69.5
2020-09-26 21:05:00 61.2 16.8 15.7 61.2 61.2 1.5 3.1 1.9 205.8 313.9 0.00 0.0000000 69.4
2020-09-26 21:10:00 61.0 14.2 11.8 61.0 61.0 1.7 1.9 0.5 258.7 220.9 0.00 0.0000000 69.2
2020-09-26 21:15:00 65.5 12.7 12.7 65.5 65.5 2.4 4.7 3.2 340.9 313.6 0.00 0.0000299 69.1
2020-09-26 21:20:00 66.3 11.7 11.6 66.3 66.3 3.0 10.3 3.8 299.6 330.5 0.00 0.0000014 69.0
2020-09-26 21:25:00 68.4 10.1 9.9 68.4 68.4 11.2 11.2 5.9 7.3 324.8 0.00 0.0000000 68.9
2020-09-26 21:30:00 69.3 10.1 10.7 69.3 69.3 7.6 12.4 6.2 331.1 293.5 0.00 0.0000000 68.8
2020-09-26 21:35:00 69.9 10.2 11.2 69.9 69.9 3.5 10.6 6.5 0.5 319.2 0.00 0.0000000 68.6
2020-09-26 21:40:00 70.1 10.0 10.9 70.1 70.1 3.1 6.7 3.9 333.4 337.1 0.00 0.0000000 68.5
2020-09-26 21:45:00 70.2 9.7 10.2 70.2 70.2 4.2 12.4 5.3 324.2 332.9 0.00 0.0000000 68.4
2020-09-26 21:50:00 71.0 9.2 9.8 71.0 71.0 3.0 12.1 7.0 2.7 332.5 0.00 0.0000000 68.3
2020-09-26 21:55:00 70.8 9.5 10.2 70.8 70.8 10.1 11.3 5.8 305.0 323.9 0.00 0.0000000 68.2
2020-09-26 22:00:00 70.8 9.5 10.4 70.8 70.8 9.2 13.5 8.2 309.3 319.4 0.00 0.0000000 68.1
2020-09-26 22:05:00 70.6 9.6 10.4 70.6 70.6 8.0 12.4 8.8 0.2 303.7 0.00 0.0000000 68.1
2020-09-26 22:10:00 71.0 9.2 9.7 71.0 71.0 9.0 13.9 10.1 297.9 315.6 0.00 0.0000000 68.0
2020-09-26 22:15:00 70.9 9.5 10.5 70.9 70.9 10.1 14.9 10.2 301.5 320.0 0.00 0.0000000 67.9
2020-09-26 22:20:00 71.2 9.4 10.4 71.2 71.2 6.3 17.6 11.3 279.5 307.0 0.00 0.0000000 67.8
2020-09-26 22:25:00 70.0 9.8 10.4 70.0 70.0 11.9 16.9 10.0 333.9 304.5 0.00 0.0000000 67.7
2020-09-26 22:30:00 69.5 10.5 11.6 69.5 69.5 8.3 17.4 9.1 311.4 296.6 0.00 0.0000000 67.7
2020-09-26 22:35:00 69.8 10.0 10.7 69.8 69.8 9.2 16.2 9.9 316.5 306.1 0.00 0.0000000 67.6
2020-09-26 22:40:00 69.8 9.6 9.9 69.8 69.8 14.0 14.2 9.8 321.9 312.3 0.00 0.0000000 67.5
2020-09-26 22:45:00 70.6 9.8 11.0 70.6 70.6 8.3 19.6 12.2 322.0 315.6 0.00 0.0000000 67.5
2020-09-26 22:50:00 70.6 9.7 10.7 70.6 70.6 11.3 14.2 10.7 292.5 320.0 0.00 0.0000000 67.4
2020-09-26 22:55:00 70.0 10.0 10.9 70.0 70.0 3.1 13.7 7.8 39.4 316.8 0.00 0.0000000 67.4
2020-09-26 23:00:00 69.9 9.9 10.5 69.9 69.9 6.0 11.2 6.2 316.8 308.3 0.00 0.0000000 67.3
2020-09-26 23:05:00 70.4 9.7 10.5 70.4 70.4 6.0 14.0 7.3 285.2 322.7 0.00 0.0000000 67.3
2020-09-26 23:10:00 70.3 9.9 10.8 70.3 70.3 4.4 10.6 5.3 307.0 323.3 0.00 0.0000000 67.2
2020-09-26 23:15:00 70.2 9.9 10.8 70.2 70.2 5.3 7.4 4.0 312.2 291.1 0.00 0.0000000 67.2
2020-09-26 23:20:00 70.1 10.4 11.9 70.1 70.1 2.6 10.3 4.5 280.6 331.7 0.00 0.0000000 67.2
2020-09-26 23:25:00 68.7 11.2 12.4 68.7 68.7 2.6 5.3 3.5 15.4 291.0 0.00 0.0000000 67.1
2020-09-26 23:30:00 69.8 10.0 10.8 69.8 69.8 6.7 9.4 5.0 304.2 315.2 0.00 0.0000000 67.1
2020-09-26 23:35:00 69.5 10.3 11.1 69.5 69.5 6.9 9.2 5.3 314.6 299.3 0.00 0.0000000 67.0
2020-09-26 23:40:00 69.2 11.1 12.5 69.2 69.2 4.7 7.8 4.0 329.1 310.4 0.00 0.0000000 67.0
2020-09-26 23:45:00 69.8 10.7 12.3 69.8 69.8 6.9 9.2 5.9 343.9 330.2 0.00 0.0000000 66.9
2020-09-26 23:50:00 70.2 10.7 12.6 70.2 70.2 5.8 11.2 7.4 332.1 306.4 0.00 0.0000000 66.9
2020-09-26 23:55:00 70.9 10.2 12.1 70.9 70.9 4.0 14.4 8.5 327.4 316.1 0.00 0.0000000 66.8
2020-09-27 00:00:00 70.6 10.5 12.4 70.6 70.6 4.6 10.3 7.0 318.7 320.0 0.00 0.0000000 66.7
2020-09-27 00:05:00 69.7 11.7 14.3 69.7 69.7 3.8 8.0 5.1 233.4 288.6 0.00 0.0000000 66.7
2020-09-27 00:10:00 69.7 11.1 12.9 69.7 69.7 4.4 11.9 6.2 245.0 286.0 0.00 0.0000000 66.7
2020-09-27 00:15:00 68.3 12.0 13.8 68.3 68.3 3.0 5.6 3.2 219.9 272.0 0.00 0.0000000 66.6
2020-09-27 00:20:00 66.6 13.2 14.6 66.6 66.6 3.1 5.1 3.6 298.0 238.0 0.00 0.0000000 66.5
2020-09-27 00:25:00 67.2 12.7 14.2 67.2 67.2 3.1 6.5 3.2 225.8 282.1 0.00 0.0000000 66.5
2020-09-27 00:30:00 67.4 12.7 14.2 67.4 67.4 1.7 7.6 3.9 286.7 265.6 0.00 0.0000000 66.4
2020-09-27 00:35:00 66.9 12.8 14.0 66.9 66.9 4.9 6.5 3.5 254.6 277.1 0.00 0.0000000 66.3
2020-09-27 00:40:00 67.9 12.2 13.7 67.9 67.9 4.0 6.2 3.9 310.8 307.2 0.00 0.0000000 66.3
2020-09-27 00:45:00 67.5 12.8 14.5 67.5 67.5 2.8 6.2 3.5 261.3 287.0 0.00 0.0000000 66.3
2020-09-27 00:50:00 67.6 12.2 13.6 67.6 67.6 8.3 8.3 4.3 327.4 313.6 0.00 0.0000000 66.2
2020-09-27 00:55:00 68.9 12.1 14.4 68.9 68.9 6.3 10.3 6.1 325.5 310.2 0.00 0.0000000 66.1
2020-09-27 01:00:00 69.7 11.7 14.2 69.7 69.7 4.4 8.8 6.3 314.8 321.5 0.00 0.0000000 66.1
2020-09-27 01:05:00 69.8 11.8 14.4 69.8 69.8 11.7 14.7 7.2 335.1 315.3 0.00 0.0000000 66.1
2020-09-27 01:10:00 70.1 11.6 14.3 70.1 70.1 6.9 12.2 6.9 302.2 324.4 0.00 0.0000000 66.0
2020-09-27 01:15:00 69.6 12.1 14.9 69.6 69.6 7.6 7.6 5.1 322.1 318.2 0.00 0.0000000 65.9
2020-09-27 01:20:00 69.9 11.9 14.9 69.9 69.9 9.4 13.9 8.6 307.5 325.1 0.00 0.0000000 65.9
2020-09-27 01:25:00 70.6 11.5 14.5 70.6 70.6 6.0 19.0 11.3 348.5 321.5 0.00 0.0000000 65.8
2020-09-27 01:30:00 70.2 11.7 14.5 70.2 70.2 9.7 15.5 8.1 312.8 311.2 0.00 0.0000000 65.8
2020-09-27 01:35:00 69.8 11.8 14.5 69.8 69.8 8.3 13.1 7.8 325.2 314.6 0.00 0.0000000 65.7
2020-09-27 01:40:00 70.0 11.7 14.5 70.0 70.0 6.3 17.2 9.6 319.1 320.5 0.00 0.0000000 65.7
2020-09-27 01:45:00 69.5 12.0 14.7 69.5 69.5 4.2 17.4 9.3 312.6 315.1 0.00 0.0000000 65.6
2020-09-27 01:50:00 69.4 11.9 14.4 69.4 69.4 8.5 12.8 8.2 287.9 312.7 0.00 0.0000000 65.6
2020-09-27 01:55:00 69.6 11.6 14.0 69.6 69.6 10.5 13.0 8.7 328.9 314.6 0.00 0.0000000 65.6
2020-09-27 02:00:00 70.0 11.4 13.9 70.0 70.0 7.2 13.5 10.1 314.0 313.6 0.00 0.0000000 65.5
2020-09-27 02:05:00 70.1 11.2 13.6 70.1 70.1 6.2 18.3 10.2 332.7 320.3 0.00 0.0000000 65.5
2020-09-27 02:10:00 70.3 10.7 12.7 70.3 70.3 16.7 21.5 12.4 320.3 314.5 0.00 0.0000000 65.4
2020-09-27 02:15:00 70.4 10.9 13.1 70.4 70.4 8.3 15.5 9.8 233.6 314.8 0.00 0.0000000 65.4
2020-09-27 02:20:00 69.9 10.6 12.1 69.9 69.9 11.2 12.1 8.6 345.2 305.4 0.00 0.0000000 65.4
2020-09-27 02:25:00 69.8 10.6 12.1 69.8 69.8 6.0 11.5 8.1 318.7 315.4 0.00 0.0000000 65.4
2020-09-27 02:30:00 69.4 11.0 12.5 69.4 69.4 7.8 8.8 6.1 318.4 316.8 0.00 0.0000000 65.3
2020-09-27 02:35:00 69.5 10.3 11.2 69.5 69.5 10.6 12.1 8.8 321.1 323.3 0.00 0.0000000 65.3
2020-09-27 02:40:00 69.3 11.0 12.4 69.3 69.3 6.0 8.8 5.7 286.5 312.8 0.00 0.0000000 65.3
2020-09-27 02:45:00 69.2 10.6 11.6 69.2 69.2 6.7 11.3 5.9 305.9 308.4 0.00 0.0000000 65.2
2020-09-27 02:50:00 69.1 11.0 12.3 69.1 69.1 3.1 10.1 4.7 279.5 300.9 0.00 0.0000000 65.2
2020-09-27 02:55:00 67.9 11.9 13.2 67.9 67.9 2.8 8.0 3.7 336.2 276.4 0.00 0.0000000 65.2
2020-09-27 03:00:00 69.1 10.5 11.2 69.1 69.1 6.5 13.0 7.8 290.5 316.4 0.00 0.0000000 65.2
2020-09-27 03:05:00 69.0 11.3 12.8 69.0 69.0 4.0 6.2 4.1 307.5 310.6 0.00 0.0000000 65.1
2020-09-27 03:10:00 67.8 11.6 12.6 67.8 67.8 7.2 7.2 4.8 328.2 301.0 0.00 0.0000000 65.1
2020-09-27 03:15:00 68.8 11.0 12.1 68.8 68.8 7.8 10.8 7.9 307.2 320.9 0.00 0.0000000 65.1
2020-09-27 03:20:00 69.2 11.1 12.5 69.2 69.2 8.8 15.6 9.5 307.2 323.7 0.00 0.0000000 65.0
2020-09-27 03:25:00 69.0 11.3 12.9 69.0 69.0 6.9 13.1 8.1 297.0 317.0 0.00 0.0000000 65.0
2020-09-27 03:30:00 68.8 11.3 12.7 68.8 68.8 10.5 16.7 8.6 320.3 331.8 0.00 0.0000000 64.9
2020-09-27 03:35:00 68.6 11.4 12.7 68.6 68.6 8.0 14.9 8.2 324.1 313.8 0.00 0.0000000 64.9
2020-09-27 03:40:00 69.0 11.3 12.9 69.0 69.0 18.3 18.3 10.0 322.2 320.0 0.00 0.0000000 64.9
2020-09-27 03:45:00 69.0 11.2 12.7 69.0 69.0 11.2 16.5 9.8 337.4 330.2 0.00 0.0000000 64.8
2020-09-27 03:50:00 68.8 11.6 13.2 68.8 68.8 6.7 14.9 6.8 315.6 326.6 0.00 0.0000000 64.8
2020-09-27 03:55:00 68.2 11.9 13.5 68.2 68.2 1.3 6.9 3.9 43.1 338.9 0.00 0.0000000 64.7
2020-09-27 04:00:00 67.6 12.2 13.5 67.6 67.6 4.2 7.4 2.8 14.2 340.7 0.00 0.0000000 64.7
2020-09-27 04:05:00 67.2 12.2 13.3 67.2 67.2 1.9 5.1 2.7 116.6 34.0 0.00 0.0000000 64.7
2020-09-27 04:10:00 66.6 13.1 14.3 66.6 66.6 2.6 3.0 1.7 123.1 118.3 0.00 0.0000000 64.7
2020-09-27 04:15:00 66.1 13.3 14.3 66.1 66.1 2.1 6.2 3.2 345.3 181.4 0.00 0.0000000 64.6
2020-09-27 04:20:00 66.5 13.3 14.7 66.5 66.5 5.6 11.3 5.5 202.8 270.7 0.00 0.0000000 64.6
2020-09-27 04:25:00 67.1 12.5 13.7 67.1 67.1 11.3 17.6 11.1 289.6 318.2 0.00 0.0000000 64.5
2020-09-27 04:30:00 67.1 12.5 13.7 67.1 67.1 15.3 19.8 11.9 280.9 306.9 0.00 0.0000000 64.5
2020-09-27 04:35:00 67.1 12.7 13.9 67.1 67.1 11.3 19.6 12.8 307.5 317.4 0.00 0.0000000 64.5
2020-09-27 04:40:00 66.5 12.8 13.8 66.5 66.5 14.6 19.8 13.8 309.3 320.6 0.00 0.0000000 64.4
2020-09-27 04:45:00 66.3 12.9 13.7 66.3 66.3 15.3 17.2 12.5 324.9 323.8 0.00 0.0000000 64.4
2020-09-27 04:50:00 66.0 13.1 13.9 66.0 66.0 8.3 16.0 11.3 303.9 321.7 0.00 0.0000000 64.4
2020-09-27 04:55:00 64.7 14.2 14.6 64.7 64.7 10.6 14.0 8.9 300.2 315.8 0.00 0.0000000 64.3
2020-09-27 05:00:00 63.7 15.2 15.4 63.7 63.7 9.4 13.5 7.8 294.8 300.7 0.00 0.0000000 64.3
2020-09-27 05:05:00 63.0 15.5 15.3 63.0 63.0 8.0 9.9 7.1 298.2 297.1 0.00 0.0000000 64.3
2020-09-27 05:10:00 63.0 15.3 14.9 63.0 63.0 6.9 9.9 7.1 293.0 294.3 0.00 0.0000000 64.2
2020-09-27 05:15:00 61.6 16.4 15.6 61.6 61.6 4.2 8.8 5.8 293.9 283.2 0.00 0.0000000 64.2
2020-09-27 05:20:00 61.3 16.4 15.3 61.3 61.3 4.4 6.7 5.4 291.5 287.7 0.00 0.0000000 64.2
2020-09-27 05:25:00 61.3 16.4 15.3 61.3 61.3 4.7 7.6 4.9 286.7 292.4 0.00 0.0000000 64.1
2020-09-27 05:30:00 60.9 16.7 15.3 60.9 60.9 4.2 6.0 4.6 301.6 291.5 0.00 0.0000000 64.1
2020-09-27 05:35:00 60.5 16.9 15.3 60.5 60.5 4.6 7.4 4.2 295.1 295.5 0.00 0.0000000 64.1
2020-09-27 05:40:00 60.5 16.7 15.0 60.5 60.5 6.3 7.2 5.3 303.7 292.3 0.00 0.0000000 64.0
2020-09-27 05:45:00 59.7 17.5 15.5 59.7 59.7 5.6 8.0 5.3 242.3 282.3 0.00 0.0000000 64.0
2020-09-27 05:50:00 59.1 18.0 15.5 59.1 59.1 3.1 6.9 4.8 312.8 286.4 0.00 0.0000000 64.0
2020-09-27 05:55:00 58.1 20.1 17.3 58.1 58.1 3.5 6.3 4.0 230.6 268.0 0.00 0.0000000 63.9
2020-09-27 06:00:00 53.9 24.5 18.4 53.9 53.9 2.4 6.0 3.6 254.8 247.2 0.00 0.0000000 63.9
2020-09-27 06:05:00 52.7 24.3 17.2 52.7 52.7 5.5 6.2 4.4 277.6 249.8 0.00 0.0000000 63.8
2020-09-27 06:10:00 51.8 25.7 17.6 51.8 51.8 4.7 6.0 3.6 244.6 244.1 0.00 0.0000000 63.8
2020-09-27 06:15:00 52.1 24.9 17.2 52.1 52.1 5.1 6.3 4.6 247.2 239.4 0.00 0.0000000 63.7
2020-09-27 06:20:00 52.3 25.2 17.6 52.3 52.3 5.1 5.8 4.4 245.7 235.8 0.00 0.0000000 63.7
2020-09-27 06:25:00 52.6 24.4 17.2 52.6 52.6 5.3 8.5 5.6 259.3 262.2 0.00 0.0000000 63.6
2020-09-27 06:30:00 50.9 26.5 17.6 50.9 50.9 4.2 8.0 4.1 222.2 225.5 0.00 0.0000000 63.5
2020-09-27 06:35:00 51.0 26.6 17.8 51.0 51.0 2.4 7.1 4.1 203.5 250.3 0.00 0.0000000 63.5
2020-09-27 06:40:00 50.9 25.9 17.1 50.9 50.9 4.9 6.3 3.8 273.3 248.7 0.00 0.0000000 63.4
2020-09-27 06:45:00 50.7 25.8 16.9 50.7 50.7 6.7 8.3 4.5 291.3 256.9 0.00 0.0000605 63.4
2020-09-27 06:50:00 51.0 26.4 17.7 51.0 51.0 3.8 5.8 4.3 277.8 255.6 0.00 0.0007114 63.3
2020-09-27 06:55:00 52.1 24.0 16.4 52.1 52.1 6.5 9.0 6.1 198.2 266.2 0.00 0.0018230 63.2
2020-09-27 07:00:00 51.9 25.4 17.5 51.9 51.9 5.1 8.3 5.4 287.8 262.3 0.00 0.0034487 63.2
2020-09-27 07:05:00 50.9 26.7 17.8 50.9 50.9 7.8 8.8 5.9 243.2 259.2 0.00 0.0057810 63.1
2020-09-27 07:10:00 50.6 26.8 17.6 50.6 50.6 6.5 8.5 5.7 286.6 260.2 0.00 0.0141175 63.0
2020-09-27 07:15:00 51.4 26.3 17.9 51.4 51.4 4.4 8.7 6.1 268.7 267.0 0.00 0.0193815 63.0
2020-09-27 07:20:00 51.7 26.3 18.1 51.7 51.7 5.1 7.2 5.3 275.8 261.1 0.00 0.0268918 62.9
2020-09-27 07:25:00 51.6 26.6 18.3 51.6 51.6 3.1 5.8 4.3 277.2 242.0 0.00 0.0337478 62.8
2020-09-27 07:30:00 52.0 29.4 21.0 52.0 52.0 3.3 6.3 3.6 226.3 238.5 0.00 0.0407214 62.8
2020-09-27 07:35:00 52.6 25.1 17.9 52.6 52.6 4.2 4.7 3.7 319.7 286.6 0.00 0.0487390 62.7
2020-09-27 07:40:00 54.8 22.9 17.6 54.8 54.8 2.8 4.7 3.2 270.8 291.2 0.00 0.0557071 62.6
2020-09-27 07:45:00 55.8 27.6 22.7 55.8 55.8 3.5 6.9 3.9 200.9 251.8 0.00 0.0624754 62.6
2020-09-27 07:50:00 55.7 26.3 21.5 55.7 55.7 5.3 5.6 3.7 257.6 255.4 0.00 0.0686265 62.5
2020-09-27 07:55:00 55.7 26.7 21.9 55.7 55.7 3.1 6.3 3.9 302.6 272.1 0.00 0.0666421 62.5
2020-09-27 08:00:00 56.6 26.1 22.2 56.6 56.6 3.1 4.0 2.9 236.0 285.6 0.00 0.0634335 62.5
2020-09-27 08:05:00 58.2 23.0 20.6 58.2 58.2 3.3 4.6 2.9 273.7 275.6 0.00 0.0751226 62.4
2020-09-27 08:10:00 59.0 24.2 22.4 59.0 59.0 2.2 4.9 2.8 323.8 272.4 0.00 0.0454063 62.4
2020-09-27 08:15:00 61.2 19.6 19.3 61.2 61.2 6.9 7.1 4.7 328.2 289.8 0.00 0.0399082 62.4
2020-09-27 08:20:00 64.2 15.5 16.3 64.2 64.2 9.7 9.7 6.4 303.8 295.3 0.00 0.0406030 62.4
2020-09-27 08:25:00 65.4 15.5 17.3 65.4 65.4 4.2 11.7 6.9 5.6 296.4 0.00 0.0428048 62.4
2020-09-27 08:30:00 65.8 15.0 16.8 65.8 65.8 7.4 10.8 6.1 266.6 301.7 0.00 0.0463864 62.4
2020-09-27 08:35:00 66.3 14.4 16.2 66.3 66.3 8.5 10.3 6.5 302.1 295.9 0.00 0.0491099 62.4
2020-09-27 08:40:00 66.4 13.9 15.5 66.4 66.4 7.4 10.8 7.2 290.5 281.7 0.00 0.0462111 62.4
2020-09-27 08:45:00 66.5 13.7 15.2 66.5 66.5 4.9 8.0 4.8 294.7 295.1 0.00 0.0391294 62.5
2020-09-27 08:50:00 66.7 13.1 14.4 66.7 66.7 3.8 14.7 7.0 342.4 315.4 0.00 0.0319054 62.5
2020-09-27 08:55:00 66.5 13.4 14.8 66.5 66.5 2.1 11.9 5.6 281.7 315.5 0.00 0.0283924 62.5
2020-09-27 09:00:00 66.1 15.2 17.4 66.1 66.1 1.9 4.0 2.8 289.8 355.5 0.00 0.0265374 62.5
2020-09-27 09:05:00 64.7 17.6 19.7 64.7 64.7 3.1 6.5 2.3 221.5 299.8 0.00 0.0313122 62.6
2020-09-27 09:10:00 64.6 17.2 19.1 64.6 64.6 0.8 3.5 1.7 106.0 338.2 0.00 0.0369490 62.6
2020-09-27 09:15:00 66.5 15.7 18.4 66.5 66.5 2.4 5.1 1.9 294.5 128.2 0.00 0.1194065 62.6
2020-09-27 09:20:00 68.2 15.7 19.9 68.2 68.2 2.4 4.6 3.3 50.0 260.0 0.00 0.1299893 62.7
2020-09-27 09:25:00 69.7 13.4 17.3 69.7 69.7 4.7 7.4 3.8 264.1 337.1 0.00 0.1365892 62.7
2020-09-27 09:30:00 70.6 11.0 13.6 70.6 70.6 4.4 6.5 3.6 13.1 340.2 0.00 0.1348109 62.7
2020-09-27 09:35:00 71.1 13.4 18.4 71.1 71.1 3.3 6.2 3.5 322.8 6.0 0.00 0.1440623 62.8
2020-09-27 09:40:00 71.1 13.3 18.2 71.1 71.1 6.0 7.6 4.1 103.4 33.2 0.00 0.1470275 62.8
2020-09-27 09:45:00 71.4 11.9 15.9 71.4 71.4 3.3 6.0 4.0 23.6 91.7 0.00 0.1479500 62.9
2020-09-27 09:50:00 71.7 13.0 18.2 71.7 71.7 6.9 8.5 4.4 82.7 78.3 0.00 0.1596652 63.0
2020-09-27 09:55:00 71.8 12.3 17.1 71.8 71.8 6.2 8.3 5.9 97.5 106.0 0.00 0.1523838 63.1
2020-09-27 10:00:00 72.6 12.1 17.3 72.6 72.6 4.6 6.7 4.9 101.3 81.9 0.00 0.1632026 63.1
2020-09-27 10:05:00 73.6 11.0 15.8 73.6 73.6 5.1 8.1 5.6 95.6 114.7 0.00 0.1767370 63.2
2020-09-27 10:10:00 74.1 10.9 16.1 74.1 74.1 3.1 6.3 4.0 128.5 127.3 0.00 0.1777819 63.4
2020-09-27 10:15:00 74.7 10.6 15.8 74.7 74.7 4.4 8.5 4.8 98.7 117.6 0.00 0.1793435 63.5
2020-09-27 10:20:00 73.9 11.1 16.3 73.9 73.9 3.5 5.5 4.3 103.4 98.5 0.00 0.1769012 63.6
2020-09-27 10:25:00 74.2 11.2 16.8 74.2 74.2 3.5 6.3 4.3 172.3 128.1 0.00 0.1914793 63.8
2020-09-27 10:30:00 74.5 11.0 16.5 74.5 74.5 1.7 5.1 3.2 55.4 155.2 0.00 0.1898720 63.9
2020-09-27 10:35:00 75.1 10.0 14.8 75.1 75.1 7.4 7.4 3.5 125.6 92.0 0.00 0.1947369 64.1
2020-09-27 10:40:00 74.2 11.2 16.7 74.2 74.2 8.1 10.8 8.1 182.0 146.1 0.00 0.1934627 64.3
2020-09-27 10:45:00 74.8 11.3 17.4 74.8 74.8 3.0 8.1 4.7 256.7 212.6 0.00 0.1970228 64.5
2020-09-27 10:50:00 75.0 11.4 17.7 75.0 75.0 9.9 12.4 6.8 3.6 318.9 0.00 0.2045957 64.7
2020-09-27 10:55:00 74.6 12.1 18.8 74.6 74.6 7.6 14.0 8.9 343.1 319.7 0.00 0.2063003 64.9
2020-09-27 11:00:00 74.9 11.4 17.7 74.9 74.9 9.7 11.9 8.8 312.3 311.8 0.00 0.2159001 65.1
2020-09-27 11:05:00 74.6 12.0 18.5 74.6 74.6 9.9 13.3 9.4 346.6 318.3 0.00 0.2178089 65.3
2020-09-27 11:10:00 74.6 12.6 19.8 74.6 74.6 9.9 14.9 9.6 315.6 303.3 0.00 0.2217642 65.5
2020-09-27 11:15:00 74.8 12.1 19.0 74.8 74.8 12.2 14.4 9.3 288.3 304.5 0.00 0.2248303 65.8
2020-09-27 11:20:00 74.6 12.5 19.6 74.6 74.6 6.5 15.5 9.9 291.7 314.9 0.00 0.2269416 66.0
2020-09-27 11:25:00 74.9 12.3 19.5 74.9 74.9 10.1 14.2 9.7 309.7 321.7 0.00 0.2288734 66.2
2020-09-27 11:30:00 74.0 12.9 19.9 74.0 74.0 9.2 22.1 13.1 4.0 322.8 0.00 0.2309977 66.5
2020-09-27 11:35:00 74.3 13.0 20.2 74.3 74.3 6.5 19.0 10.3 321.2 322.6 0.00 0.2341097 66.7
2020-09-27 11:40:00 74.7 12.8 20.2 74.7 74.7 9.6 17.8 10.2 318.0 312.0 0.00 0.2367103 66.9
2020-09-27 11:45:00 74.8 12.9 20.4 74.8 74.8 8.0 12.6 8.7 336.3 327.7 0.00 0.2349004 67.2
2020-09-27 11:50:00 75.3 13.1 21.2 75.3 75.3 6.3 14.0 8.6 331.8 315.5 0.00 0.2409378 67.4
2020-09-27 11:55:00 75.8 12.2 20.0 75.8 75.8 8.5 15.1 9.9 249.1 290.3 0.00 0.2424356 67.6
2020-09-27 12:00:00 75.3 13.7 22.2 75.3 75.3 7.6 14.4 9.2 297.6 304.1 0.00 0.2442606 67.9
2020-09-27 12:05:00 74.8 12.4 19.5 74.8 74.8 11.5 17.2 10.8 315.0 323.1 0.00 0.2450031 68.1
2020-09-27 12:10:00 75.5 12.9 21.0 75.5 75.5 9.9 15.8 10.0 292.1 304.7 0.00 0.2465712 68.3
2020-09-27 12:15:00 76.4 12.2 20.5 76.4 76.4 9.0 12.8 8.2 293.5 302.6 0.00 0.2473841 68.6
2020-09-27 12:20:00 76.8 12.8 21.8 76.8 76.8 8.5 13.7 7.8 305.7 304.9 0.00 0.2485720 68.8
2020-09-27 12:25:00 76.0 13.0 21.5 76.0 76.0 8.8 16.0 11.5 271.0 278.1 0.00 0.2501497 69.1
2020-09-27 12:30:00 76.2 13.1 22.0 76.2 76.2 8.8 15.3 9.0 327.1 301.4 0.00 0.2510999 69.3
2020-09-27 12:35:00 76.1 12.6 20.9 76.1 76.1 13.7 17.4 11.6 311.7 305.5 0.00 0.2508861 69.6
2020-09-27 12:40:00 76.8 12.6 21.4 76.8 76.8 15.6 15.6 9.5 320.2 306.1 0.00 0.2520040 69.8
2020-09-27 12:45:00 76.2 13.0 21.7 76.2 76.2 9.2 16.5 11.1 296.1 287.1 0.00 0.2519086 70.0
2020-09-27 12:50:00 76.2 14.0 23.6 76.2 76.2 6.9 15.5 8.8 305.2 312.2 0.00 0.2519899 70.2
2020-09-27 12:55:00 76.6 13.5 23.0 76.6 76.6 9.4 16.7 9.5 314.0 300.5 0.00 0.2525018 70.5
2020-09-27 13:00:00 76.2 12.7 21.2 76.2 76.2 14.7 17.1 11.9 316.6 308.5 0.00 0.2517890 70.7
2020-09-27 13:05:00 76.6 13.0 22.0 76.6 76.6 12.1 21.9 11.9 340.9 304.9 0.00 0.2508036 70.9
2020-09-27 13:10:00 76.3 12.4 20.8 76.3 76.3 11.2 18.3 11.0 339.4 313.6 0.00 0.2505588 71.2
2020-09-27 13:15:00 76.5 12.9 21.8 76.5 76.5 9.0 19.0 11.8 323.3 330.2 0.00 0.2506198 71.4
2020-09-27 13:20:00 77.1 13.2 22.7 77.1 77.1 11.2 13.9 8.8 249.7 301.4 0.00 0.2502300 71.6
2020-09-27 13:25:00 77.3 13.2 23.0 77.3 77.3 7.4 15.1 11.1 233.2 297.4 0.00 0.2502415 71.8
2020-09-27 13:30:00 77.8 12.5 22.0 77.8 77.8 10.8 11.5 8.3 292.2 264.1 0.00 0.2486175 72.0
2020-09-27 13:35:00 77.1 12.9 22.3 77.1 77.1 11.0 17.6 11.4 289.1 305.6 0.00 0.2483146 72.2
2020-09-27 13:40:00 77.3 12.7 22.0 77.3 77.3 10.8 20.3 10.1 331.7 311.7 0.00 0.2471756 72.4
2020-09-27 13:45:00 77.5 12.6 22.1 77.5 77.5 8.7 13.7 8.8 268.2 292.1 0.00 0.2452260 72.5
2020-09-27 13:50:00 77.7 12.8 22.6 77.7 77.7 8.3 13.5 9.9 271.2 291.6 0.00 0.2436662 72.7
2020-09-27 13:55:00 76.2 11.4 18.6 76.2 76.2 12.2 18.5 13.4 330.1 315.6 0.00 0.2417041 72.9
2020-09-27 14:00:00 76.5 12.6 21.3 76.5 76.5 4.0 14.6 9.4 107.4 320.8 0.00 0.2391138 73.0
2020-09-27 14:05:00 76.6 13.2 22.5 76.6 76.6 8.0 13.1 8.5 272.9 309.8 0.00 0.2378530 73.1
2020-09-27 14:10:00 77.0 12.0 20.5 77.0 77.0 10.8 15.5 11.4 306.5 296.1 0.00 0.2356637 73.3
2020-09-27 14:15:00 76.7 12.5 21.2 76.7 76.7 15.5 19.4 12.8 248.7 301.5 0.00 0.2340499 73.4
2020-09-27 14:20:00 77.5 12.6 22.0 77.5 77.5 11.0 16.4 9.6 272.9 291.7 0.00 0.2324898 73.6
2020-09-27 14:25:00 77.3 12.9 22.4 77.3 77.3 7.8 16.4 8.5 301.2 316.8 0.00 0.2284328 73.7
2020-09-27 14:30:00 77.1 13.5 23.5 77.1 77.1 8.0 12.8 8.4 302.4 308.0 0.00 0.2256410 73.8
2020-09-27 14:35:00 77.3 13.3 23.2 77.3 77.3 9.7 14.6 9.5 308.3 320.6 0.00 0.2229014 74.0
2020-09-27 14:40:00 78.1 12.0 21.3 78.1 78.1 7.6 12.8 8.0 342.4 319.3 0.00 0.2206590 74.1
2020-09-27 14:45:00 77.9 12.6 22.4 77.9 77.9 8.5 14.6 9.9 301.9 298.7 0.00 0.2176075 74.3
2020-09-27 14:50:00 78.2 13.4 24.0 78.2 78.2 5.8 14.0 8.4 254.1 285.9 0.00 0.2152576 74.4
2020-09-27 14:55:00 78.1 12.9 23.1 78.1 78.1 7.1 12.2 7.4 281.5 299.8 0.00 0.2114464 74.5
2020-09-27 15:00:00 78.4 13.2 23.8 78.4 78.4 10.1 10.1 6.0 302.2 316.7 0.00 0.2076166 74.6
2020-09-27 15:05:00 77.5 13.4 23.4 77.5 77.5 9.0 15.8 9.3 316.8 317.4 0.00 0.2041729 74.8
2020-09-27 15:10:00 77.5 13.1 22.9 77.5 77.5 4.7 14.6 9.0 329.4 311.2 0.00 0.2013975 74.9
2020-09-27 15:15:00 77.5 11.3 19.5 77.5 77.5 9.4 12.4 9.3 346.2 316.8 0.00 0.1976473 75.0
2020-09-27 15:20:00 77.8 12.6 22.2 77.8 77.8 4.9 11.7 6.4 316.5 286.4 0.00 0.1948173 75.2
2020-09-27 15:25:00 78.1 12.4 22.2 78.1 78.1 10.8 17.4 9.0 312.8 289.0 0.00 0.1902509 75.3
2020-09-27 15:30:00 78.0 12.1 21.5 78.0 78.0 8.1 17.1 9.1 299.1 306.6 0.00 0.1865175 75.4
2020-09-27 15:35:00 77.8 11.5 20.1 77.8 77.8 13.0 23.5 10.9 307.5 306.0 0.00 0.1818199 75.5
2020-09-27 15:40:00 77.5 12.2 21.2 77.5 77.5 6.7 12.8 9.0 330.8 315.0 0.00 0.1783906 75.6
2020-09-27 15:45:00 78.1 11.3 19.9 78.1 78.1 8.5 11.0 6.7 301.7 303.7 0.00 0.1736515 75.7
2020-09-27 15:50:00 78.4 10.7 18.9 78.4 78.4 12.2 15.8 7.9 283.0 298.7 0.00 0.1689456 75.8
2020-09-27 15:55:00 78.5 10.9 19.5 78.5 78.5 8.1 13.5 8.2 267.5 283.9 0.00 0.1646557 75.9
2020-09-27 16:00:00 78.3 11.2 19.8 78.3 78.3 11.0 11.2 8.1 274.9 287.2 0.00 0.1605277 76.0
2020-09-27 16:05:00 77.6 11.2 19.3 77.6 77.6 10.1 13.5 9.4 284.4 316.6 0.00 0.1554679 76.1
2020-09-27 16:10:00 77.1 11.1 18.7 77.1 77.1 8.0 14.6 9.2 287.2 320.3 0.00 0.1497484 76.1
2020-09-27 16:15:00 77.5 11.5 19.8 77.5 77.5 8.8 14.0 8.6 261.9 310.7 0.00 0.1451342 76.2
2020-09-27 16:20:00 77.1 11.3 19.1 77.1 77.1 9.2 19.0 10.7 323.4 321.5 0.00 0.1406930 76.3
2020-09-27 16:25:00 77.4 11.3 19.4 77.4 77.4 6.5 11.3 8.9 329.9 321.5 0.00 0.1354434 76.3
2020-09-27 16:30:00 77.3 11.0 18.8 77.3 77.3 5.8 11.3 7.6 291.4 303.0 0.00 0.1310787 76.4
2020-09-27 16:35:00 77.5 11.8 20.5 77.5 77.5 6.3 11.9 7.2 307.6 291.5 0.00 0.1266154 76.4
2020-09-27 16:40:00 77.5 11.7 20.3 77.5 77.5 10.3 12.2 7.4 283.2 290.8 0.00 0.1224435 76.4
2020-09-27 16:45:00 77.6 11.1 19.1 77.6 77.6 6.7 8.7 6.5 303.9 286.7 0.00 0.1175424 76.4
2020-09-27 16:50:00 77.6 10.5 17.9 77.6 77.6 8.1 10.5 6.6 287.3 291.9 0.00 0.1114642 76.4
2020-09-27 16:55:00 77.3 11.5 19.7 77.3 77.3 8.0 9.4 6.2 321.6 302.9 0.00 0.1061620 76.4
2020-09-27 17:00:00 77.5 16.0 27.7 77.5 77.5 8.3 10.3 5.1 165.4 345.2 0.00 0.1004252 76.4
2020-09-27 17:05:00 72.5 21.6 31.1 72.5 72.5 9.6 12.6 9.4 113.3 103.3 0.00 0.0931367 76.4
2020-09-27 17:10:00 71.3 22.6 31.1 71.3 71.3 9.9 12.6 8.8 122.8 97.0 0.00 0.0873557 76.4
2020-09-27 17:15:00 70.6 23.9 31.9 70.6 70.6 9.4 11.7 8.9 87.3 102.4 0.00 0.0791944 76.4
2020-09-27 17:20:00 70.1 24.2 31.9 70.1 70.1 7.2 12.2 7.6 114.8 109.8 0.00 0.0738180 76.3
2020-09-27 17:25:00 69.3 24.5 31.4 69.3 69.3 8.3 12.2 8.6 123.9 120.9 0.00 0.0705025 76.3
2020-09-27 17:30:00 68.7 24.9 31.4 68.7 68.7 10.6 10.6 8.4 109.7 108.5 0.00 0.0687592 76.3
2020-09-27 17:35:00 68.1 25.5 31.5 68.1 68.1 7.6 11.2 7.0 132.2 106.1 0.00 0.0627999 76.2
2020-09-27 17:40:00 67.5 26.1 31.5 67.5 67.5 5.5 10.8 7.8 116.7 99.7 0.00 0.0557131 76.2
2020-09-27 17:45:00 67.1 26.1 31.1 67.1 67.1 8.5 9.6 7.5 72.2 114.7 0.00 0.0489439 76.1
2020-09-27 17:50:00 66.6 26.4 30.9 66.6 66.6 11.3 11.3 8.4 120.5 114.8 0.00 0.0452915 76.0
2020-09-27 17:55:00 65.8 27.5 31.4 65.8 65.8 4.7 12.1 8.0 105.3 111.3 0.00 0.0220754 75.9
2020-09-27 18:00:00 65.5 27.3 30.9 65.5 65.5 5.6 9.6 6.5 139.0 103.2 0.00 0.0158501 75.8
2020-09-27 18:05:00 65.1 28.0 31.1 65.1 65.1 5.8 10.1 6.0 94.1 97.9 0.00 0.0179569 75.7
2020-09-27 18:10:00 64.6 27.6 30.4 64.6 64.6 5.5 9.4 6.5 72.6 91.2 0.00 0.0179404 75.6
2020-09-27 18:15:00 64.3 27.8 30.3 64.3 64.3 6.2 8.3 5.5 105.9 97.1 0.00 0.0236198 75.5
2020-09-27 18:20:00 63.7 28.2 30.1 63.7 63.7 5.6 8.5 5.6 121.1 97.7 0.00 0.0100842 75.3
2020-09-27 18:25:00 62.7 29.2 30.2 62.7 62.7 5.3 10.3 6.0 94.6 86.7 0.00 0.0044697 75.2
2020-09-27 18:30:00 61.8 30.2 30.2 61.8 61.8 4.0 8.7 5.5 107.8 90.6 0.00 0.0032686 75.1
2020-09-27 18:35:00 61.0 30.8 30.0 61.0 61.0 4.0 8.1 4.8 88.6 95.4 0.00 0.0022476 74.9
2020-09-27 18:40:00 60.5 31.4 30.0 60.5 60.5 3.0 6.9 3.7 100.9 83.0 0.00 0.0009452 74.7
2020-09-27 18:45:00 59.7 32.0 29.8 59.7 59.7 3.0 5.5 3.7 96.0 98.6 0.00 0.0004151 74.6
2020-09-27 18:50:00 59.1 32.4 29.6 59.1 59.1 4.0 5.8 4.5 121.7 110.1 0.00 0.0000000 74.4
2020-09-27 18:55:00 58.0 34.0 29.8 58.0 58.0 5.6 5.6 3.9 87.5 109.0 0.00 0.0000000 74.2
2020-09-27 19:00:00 57.4 34.5 29.6 57.4 57.4 3.3 6.0 3.8 105.6 102.7 0.00 0.0000000 74.1
2020-09-27 19:05:00 57.3 34.8 29.7 57.3 57.3 4.4 6.2 4.3 130.2 118.2 0.00 0.0000000 73.9
2020-09-27 19:10:00 56.2 36.1 29.7 56.2 56.2 3.1 4.2 3.2 171.8 124.8 0.00 0.0000000 73.7
2020-09-27 19:15:00 55.3 37.4 29.8 55.3 55.3 2.6 4.2 3.1 106.6 131.4 0.00 0.0000000 73.5

Data is courtesy of the NM Climate Center. DO NOT USE IN LEGAL PROCEEDINGS.